sensor_id;sensor_type;location;lat;lon;timestamp;P1;durP1;ratioP1;P2;durP2;ratioP2
3993;SDS011;2011;48.238;13.948;2022-08-01T00:00:20;12.23;;;5.80;;
3993;SDS011;2011;48.238;13.948;2022-08-01T00:02:47;11.20;;;5.90;;
3993;SDS011;2011;48.238;13.948;2022-08-01T00:05:14;11.37;;;5.87;;
3993;SDS011;2011;48.238;13.948;2022-08-01T00:07:43;16.43;;;6.97;;
3993;SDS011;2011;48.238;13.948;2022-08-01T00:10:11;13.07;;;6.67;;
3993;SDS011;2011;48.238;13.948;2022-08-01T00:12:40;8.10;;;5.20;;
3993;SDS011;2011;48.238;13.948;2022-08-01T00:15:09;8.70;;;5.10;;
3993;SDS011;2011;48.238;13.948;2022-08-01T00:17:37;9.23;;;4.90;;
3993;SDS011;2011;48.238;13.948;2022-08-01T00:20:05;10.43;;;5.30;;
3993;SDS011;2011;48.238;13.948;2022-08-01T00:22:34;10.70;;;5.63;;
3993;SDS011;2011;48.238;13.948;2022-08-01T00:25:03;11.33;;;5.90;;
3993;SDS011;2011;48.238;13.948;2022-08-01T00:27:31;10.33;;;5.67;;
3993;SDS011;2011;48.238;13.948;2022-08-01T00:29:59;15.63;;;5.80;;
3993;SDS011;2011;48.238;13.948;2022-08-01T00:32:26;11.90;;;5.87;;
3993;SDS011;2011;48.238;13.948;2022-08-01T00:34:55;13.43;;;4.90;;
3993;SDS011;2011;48.238;13.948;2022-08-01T00:37:22;8.47;;;5.13;;
3993;SDS011;2011;48.238;13.948;2022-08-01T00:39:50;7.83;;;5.50;;
3993;SDS011;2011;48.238;13.948;2022-08-01T00:42:18;11.17;;;5.87;;
3993;SDS011;2011;48.238;13.948;2022-08-01T00:44:45;8.77;;;5.80;;
3993;SDS011;2011;48.238;13.948;2022-08-01T00:47:12;7.40;;;5.43;;
3993;SDS011;2011;48.238;13.948;2022-08-01T00:49:39;7.90;;;5.70;;
3993;SDS011;2011;48.238;13.948;2022-08-01T00:52:07;8.17;;;4.93;;
3993;SDS011;2011;48.238;13.948;2022-08-01T00:54:35;13.70;;;5.23;;
3993;SDS011;2011;48.238;13.948;2022-08-01T00:57:02;8.40;;;5.77;;
3993;SDS011;2011;48.238;13.948;2022-08-01T00:59:31;10.60;;;6.33;;
3993;SDS011;2011;48.238;13.948;2022-08-01T01:01:59;8.97;;;6.27;;
3993;SDS011;2011;48.238;13.948;2022-08-01T01:04:26;7.70;;;5.90;;
3993;SDS011;2011;48.238;13.948;2022-08-01T01:06:55;9.00;;;6.50;;
3993;SDS011;2011;48.238;13.948;2022-08-01T01:09:30;12.40;;;5.87;;
3993;SDS011;2011;48.238;13.948;2022-08-01T01:12:04;9.10;;;6.03;;
3993;SDS011;2011;48.238;13.948;2022-08-01T01:14:44;10.57;;;5.67;;
3993;SDS011;2011;48.238;13.948;2022-08-01T01:17:19;8.43;;;6.20;;
3993;SDS011;2011;48.238;13.948;2022-08-01T01:19:52;10.30;;;6.17;;
3993;SDS011;2011;48.238;13.948;2022-08-01T01:22:24;15.30;;;6.03;;
3993;SDS011;2011;48.238;13.948;2022-08-01T01:25:08;12.73;;;6.13;;
3993;SDS011;2011;48.238;13.948;2022-08-01T01:27:56;14.73;;;6.10;;
3993;SDS011;2011;48.238;13.948;2022-08-01T01:30:30;13.33;;;6.50;;
3993;SDS011;2011;48.238;13.948;2022-08-01T01:33:00;13.53;;;5.77;;
3993;SDS011;2011;48.238;13.948;2022-08-01T01:35:29;12.90;;;5.77;;
3993;SDS011;2011;48.238;13.948;2022-08-01T01:38:01;15.63;;;6.00;;
3993;SDS011;2011;48.238;13.948;2022-08-01T01:40:31;11.67;;;5.53;;
3993;SDS011;2011;48.238;13.948;2022-08-01T01:42:59;12.00;;;5.80;;
3993;SDS011;2011;48.238;13.948;2022-08-01T01:45:26;14.03;;;5.80;;
3993;SDS011;2011;48.238;13.948;2022-08-01T01:47:55;9.93;;;5.77;;
3993;SDS011;2011;48.238;13.948;2022-08-01T01:50:26;10.77;;;5.67;;
3993;SDS011;2011;48.238;13.948;2022-08-01T01:52:56;10.87;;;5.10;;
3993;SDS011;2011;48.238;13.948;2022-08-01T01:55:24;14.63;;;5.37;;
3993;SDS011;2011;48.238;13.948;2022-08-01T01:57:52;16.10;;;6.20;;
3993;SDS011;2011;48.238;13.948;2022-08-01T02:00:22;11.80;;;6.00;;
3993;SDS011;2011;48.238;13.948;2022-08-01T02:02:50;9.20;;;5.50;;
3993;SDS011;2011;48.238;13.948;2022-08-01T02:05:20;11.77;;;5.60;;
3993;SDS011;2011;48.238;13.948;2022-08-01T02:07:48;18.23;;;5.67;;
3993;SDS011;2011;48.238;13.948;2022-08-01T02:10:17;11.40;;;5.60;;
3993;SDS011;2011;48.238;13.948;2022-08-01T02:12:45;17.30;;;5.87;;
3993;SDS011;2011;48.238;13.948;2022-08-01T02:15:15;17.47;;;5.70;;
3993;SDS011;2011;48.238;13.948;2022-08-01T02:17:44;12.73;;;5.27;;
3993;SDS011;2011;48.238;13.948;2022-08-01T02:20:15;18.67;;;5.20;;
3993;SDS011;2011;48.238;13.948;2022-08-01T02:22:46;11.50;;;5.33;;
3993;SDS011;2011;48.238;13.948;2022-08-01T02:25:18;21.67;;;5.57;;
3993;SDS011;2011;48.238;13.948;2022-08-01T02:27:50;18.07;;;5.97;;
3993;SDS011;2011;48.238;13.948;2022-08-01T02:30:22;26.07;;;5.40;;
3993;SDS011;2011;48.238;13.948;2022-08-01T02:32:53;15.93;;;5.40;;
3993;SDS011;2011;48.238;13.948;2022-08-01T02:35:28;20.80;;;5.10;;
3993;SDS011;2011;48.238;13.948;2022-08-01T02:37:58;18.60;;;5.63;;
3993;SDS011;2011;48.238;13.948;2022-08-01T02:40:31;14.07;;;5.93;;
3993;SDS011;2011;48.238;13.948;2022-08-01T02:42:59;18.60;;;6.07;;
3993;SDS011;2011;48.238;13.948;2022-08-01T02:45:28;29.53;;;6.00;;
3993;SDS011;2011;48.238;13.948;2022-08-01T02:47:58;26.17;;;6.23;;
3993;SDS011;2011;48.238;13.948;2022-08-01T02:50:30;19.73;;;6.03;;
3993;SDS011;2011;48.238;13.948;2022-08-01T02:53:01;14.80;;;5.30;;
3993;SDS011;2011;48.238;13.948;2022-08-01T02:55:30;13.80;;;5.73;;
3993;SDS011;2011;48.238;13.948;2022-08-01T02:57:59;12.80;;;6.10;;
3993;SDS011;2011;48.238;13.948;2022-08-01T03:00:27;24.63;;;5.90;;
3993;SDS011;2011;48.238;13.948;2022-08-01T03:02:56;19.83;;;6.50;;
3993;SDS011;2011;48.238;13.948;2022-08-01T03:05:25;12.60;;;5.70;;
3993;SDS011;2011;48.238;13.948;2022-08-01T03:07:54;13.83;;;6.10;;
3993;SDS011;2011;48.238;13.948;2022-08-01T03:10:24;18.13;;;6.33;;
3993;SDS011;2011;48.238;13.948;2022-08-01T03:12:53;15.60;;;6.50;;
3993;SDS011;2011;48.238;13.948;2022-08-01T03:15:21;20.23;;;6.60;;
3993;SDS011;2011;48.238;13.948;2022-08-01T03:17:51;10.83;;;5.87;;
3993;SDS011;2011;48.238;13.948;2022-08-01T03:20:21;12.43;;;6.50;;
3993;SDS011;2011;48.238;13.948;2022-08-01T03:22:50;11.40;;;6.50;;
3993;SDS011;2011;48.238;13.948;2022-08-01T03:25:19;20.67;;;6.00;;
3993;SDS011;2011;48.238;13.948;2022-08-01T03:27:50;14.00;;;5.90;;
3993;SDS011;2011;48.238;13.948;2022-08-01T03:30:21;11.63;;;5.83;;
3993;SDS011;2011;48.238;13.948;2022-08-01T03:32:50;13.23;;;6.20;;
3993;SDS011;2011;48.238;13.948;2022-08-01T03:35:17;11.77;;;6.53;;
3993;SDS011;2011;48.238;13.948;2022-08-01T03:37:45;11.83;;;6.90;;
3993;SDS011;2011;48.238;13.948;2022-08-01T03:40:17;11.80;;;6.73;;
3993;SDS011;2011;48.238;13.948;2022-08-01T03:42:52;12.97;;;6.00;;
3993;SDS011;2011;48.238;13.948;2022-08-01T03:45:23;14.70;;;6.57;;
3993;SDS011;2011;48.238;13.948;2022-08-01T03:47:55;11.63;;;5.50;;
3993;SDS011;2011;48.238;13.948;2022-08-01T03:50:26;15.43;;;6.30;;
3993;SDS011;2011;48.238;13.948;2022-08-01T03:52:55;13.13;;;6.60;;
3993;SDS011;2011;48.238;13.948;2022-08-01T03:55:25;10.63;;;5.97;;
3993;SDS011;2011;48.238;13.948;2022-08-01T03:57:54;15.03;;;7.10;;
3993;SDS011;2011;48.238;13.948;2022-08-01T04:00:22;8.17;;;5.30;;
3993;SDS011;2011;48.238;13.948;2022-08-01T04:02:50;8.17;;;5.80;;
3993;SDS011;2011;48.238;13.948;2022-08-01T04:05:18;10.90;;;5.80;;
3993;SDS011;2011;48.238;13.948;2022-08-01T04:07:46;15.77;;;6.50;;
3993;SDS011;2011;48.238;13.948;2022-08-01T04:10:15;11.63;;;6.10;;
3993;SDS011;2011;48.238;13.948;2022-08-01T04:12:42;12.97;;;5.70;;
3993;SDS011;2011;48.238;13.948;2022-08-01T04:15:11;11.47;;;5.90;;
3993;SDS011;2011;48.238;13.948;2022-08-01T04:17:39;15.80;;;6.63;;
3993;SDS011;2011;48.238;13.948;2022-08-01T04:20:06;11.07;;;6.50;;
3993;SDS011;2011;48.238;13.948;2022-08-01T04:22:33;12.27;;;6.70;;
3993;SDS011;2011;48.238;13.948;2022-08-01T04:25:01;10.87;;;5.80;;
3993;SDS011;2011;48.238;13.948;2022-08-01T04:27:32;10.43;;;6.60;;
3993;SDS011;2011;48.238;13.948;2022-08-01T04:30:11;14.50;;;6.30;;
3993;SDS011;2011;48.238;13.948;2022-08-01T04:32:39;17.63;;;6.90;;
3993;SDS011;2011;48.238;13.948;2022-08-01T04:35:11;13.47;;;6.57;;
3993;SDS011;2011;48.238;13.948;2022-08-01T04:37:42;18.73;;;6.27;;
3993;SDS011;2011;48.238;13.948;2022-08-01T04:40:10;16.60;;;6.97;;
3993;SDS011;2011;48.238;13.948;2022-08-01T04:42:38;12.50;;;5.87;;
3993;SDS011;2011;48.238;13.948;2022-08-01T04:45:06;11.97;;;6.80;;
3993;SDS011;2011;48.238;13.948;2022-08-01T04:47:36;23.77;;;6.77;;
3993;SDS011;2011;48.238;13.948;2022-08-01T04:50:04;8.30;;;5.90;;
3993;SDS011;2011;48.238;13.948;2022-08-01T04:52:33;9.00;;;6.10;;
3993;SDS011;2011;48.238;13.948;2022-08-01T04:55:02;13.43;;;5.90;;
3993;SDS011;2011;48.238;13.948;2022-08-01T04:57:31;14.20;;;5.97;;
3993;SDS011;2011;48.238;13.948;2022-08-01T05:00:00;17.90;;;5.93;;
3993;SDS011;2011;48.238;13.948;2022-08-01T05:02:28;10.63;;;5.90;;
3993;SDS011;2011;48.238;13.948;2022-08-01T05:04:57;9.40;;;5.60;;
3993;SDS011;2011;48.238;13.948;2022-08-01T05:07:24;13.87;;;6.60;;
3993;SDS011;2011;48.238;13.948;2022-08-01T05:09:51;22.63;;;6.53;;
3993;SDS011;2011;48.238;13.948;2022-08-01T05:12:18;9.50;;;6.47;;
3993;SDS011;2011;48.238;13.948;2022-08-01T05:14:45;11.30;;;6.73;;
3993;SDS011;2011;48.238;13.948;2022-08-01T05:17:12;11.50;;;6.60;;
3993;SDS011;2011;48.238;13.948;2022-08-01T05:19:40;8.87;;;6.00;;
3993;SDS011;2011;48.238;13.948;2022-08-01T05:22:09;9.50;;;6.63;;
3993;SDS011;2011;48.238;13.948;2022-08-01T05:24:37;12.00;;;6.63;;
3993;SDS011;2011;48.238;13.948;2022-08-01T05:27:06;19.97;;;6.93;;
3993;SDS011;2011;48.238;13.948;2022-08-01T05:29:33;11.63;;;6.10;;
3993;SDS011;2011;48.238;13.948;2022-08-01T05:32:01;11.10;;;6.67;;
3993;SDS011;2011;48.238;13.948;2022-08-01T05:34:28;17.23;;;6.60;;
3993;SDS011;2011;48.238;13.948;2022-08-01T05:36:55;14.33;;;6.70;;
3993;SDS011;2011;48.238;13.948;2022-08-01T05:39:24;17.10;;;7.60;;
3993;SDS011;2011;48.238;13.948;2022-08-01T05:41:51;11.23;;;7.00;;
3993;SDS011;2011;48.238;13.948;2022-08-01T05:44:18;13.73;;;5.90;;
3993;SDS011;2011;48.238;13.948;2022-08-01T05:46:45;9.73;;;5.80;;
3993;SDS011;2011;48.238;13.948;2022-08-01T05:49:12;19.43;;;5.93;;
3993;SDS011;2011;48.238;13.948;2022-08-01T05:51:39;10.03;;;5.63;;
3993;SDS011;2011;48.238;13.948;2022-08-01T05:54:06;13.43;;;6.50;;
3993;SDS011;2011;48.238;13.948;2022-08-01T05:56:35;7.30;;;6.00;;
3993;SDS011;2011;48.238;13.948;2022-08-01T05:59:02;11.87;;;6.33;;
3993;SDS011;2011;48.238;13.948;2022-08-01T06:01:29;12.83;;;5.90;;
3993;SDS011;2011;48.238;13.948;2022-08-01T06:03:56;15.90;;;6.17;;
3993;SDS011;2011;48.238;13.948;2022-08-01T06:06:23;9.63;;;5.40;;
3993;SDS011;2011;48.238;13.948;2022-08-01T06:08:50;8.27;;;5.63;;
3993;SDS011;2011;48.238;13.948;2022-08-01T06:11:18;10.00;;;4.60;;
3993;SDS011;2011;48.238;13.948;2022-08-01T06:13:46;7.27;;;4.70;;
3993;SDS011;2011;48.238;13.948;2022-08-01T06:16:13;8.73;;;4.90;;
3993;SDS011;2011;48.238;13.948;2022-08-01T06:18:40;12.50;;;4.87;;
3993;SDS011;2011;48.238;13.948;2022-08-01T06:21:07;14.27;;;4.33;;
3993;SDS011;2011;48.238;13.948;2022-08-01T06:23:34;8.43;;;3.90;;
3993;SDS011;2011;48.238;13.948;2022-08-01T06:26:02;11.67;;;3.90;;
3993;SDS011;2011;48.238;13.948;2022-08-01T06:28:29;7.93;;;4.57;;
3993;SDS011;2011;48.238;13.948;2022-08-01T06:30:57;10.60;;;4.13;;
3993;SDS011;2011;48.238;13.948;2022-08-01T06:33:25;6.43;;;4.10;;
3993;SDS011;2011;48.238;13.948;2022-08-01T06:35:52;6.77;;;3.63;;
3993;SDS011;2011;48.238;13.948;2022-08-01T06:38:20;5.97;;;3.50;;
3993;SDS011;2011;48.238;13.948;2022-08-01T06:40:47;5.80;;;3.67;;
3993;SDS011;2011;48.238;13.948;2022-08-01T06:43:14;7.10;;;3.53;;
3993;SDS011;2011;48.238;13.948;2022-08-01T06:45:41;5.20;;;3.13;;
3993;SDS011;2011;48.238;13.948;2022-08-01T06:48:10;9.83;;;3.70;;
3993;SDS011;2011;48.238;13.948;2022-08-01T06:50:37;6.80;;;3.77;;
3993;SDS011;2011;48.238;13.948;2022-08-01T06:53:04;10.43;;;3.20;;
3993;SDS011;2011;48.238;13.948;2022-08-01T06:55:31;12.77;;;3.10;;
3993;SDS011;2011;48.238;13.948;2022-08-01T06:57:58;5.27;;;2.90;;
3993;SDS011;2011;48.238;13.948;2022-08-01T07:00:25;10.00;;;4.80;;
3993;SDS011;2011;48.238;13.948;2022-08-01T07:02:53;14.17;;;3.17;;
3993;SDS011;2011;48.238;13.948;2022-08-01T07:05:23;16.03;;;3.43;;
3993;SDS011;2011;48.238;13.948;2022-08-01T07:07:50;13.33;;;3.20;;
3993;SDS011;2011;48.238;13.948;2022-08-01T07:10:17;21.03;;;9.80;;
3993;SDS011;2011;48.238;13.948;2022-08-01T07:12:45;20.20;;;10.20;;
3993;SDS011;2011;48.238;13.948;2022-08-01T07:15:12;54.03;;;23.03;;
3993;SDS011;2011;48.238;13.948;2022-08-01T07:17:39;7.17;;;4.20;;
3993;SDS011;2011;48.238;13.948;2022-08-01T07:20:08;10.93;;;4.80;;
3993;SDS011;2011;48.238;13.948;2022-08-01T07:22:38;16.70;;;3.37;;
3993;SDS011;2011;48.238;13.948;2022-08-01T07:25:06;9.00;;;3.37;;
3993;SDS011;2011;48.238;13.948;2022-08-01T07:27:36;13.87;;;3.30;;
3993;SDS011;2011;48.238;13.948;2022-08-01T07:30:04;8.67;;;3.30;;
3993;SDS011;2011;48.238;13.948;2022-08-01T07:32:32;12.23;;;3.30;;
3993;SDS011;2011;48.238;13.948;2022-08-01T07:34:59;10.23;;;3.50;;
3993;SDS011;2011;48.238;13.948;2022-08-01T07:37:27;14.37;;;3.90;;
3993;SDS011;2011;48.238;13.948;2022-08-01T07:39:55;7.30;;;3.10;;
3993;SDS011;2011;48.238;13.948;2022-08-01T07:42:22;11.30;;;3.37;;
3993;SDS011;2011;48.238;13.948;2022-08-01T07:44:49;9.43;;;3.43;;
3993;SDS011;2011;48.238;13.948;2022-08-01T07:47:16;5.27;;;2.90;;
3993;SDS011;2011;48.238;13.948;2022-08-01T07:49:49;12.03;;;3.70;;
3993;SDS011;2011;48.238;13.948;2022-08-01T07:52:15;5.63;;;2.97;;
3993;SDS011;2011;48.238;13.948;2022-08-01T07:54:42;5.83;;;3.23;;
3993;SDS011;2011;48.238;13.948;2022-08-01T07:57:11;10.40;;;3.40;;
3993;SDS011;2011;48.238;13.948;2022-08-01T07:59:38;8.30;;;3.57;;
3993;SDS011;2011;48.238;13.948;2022-08-01T08:02:05;8.13;;;3.50;;
3993;SDS011;2011;48.238;13.948;2022-08-01T08:04:32;7.27;;;3.00;;
3993;SDS011;2011;48.238;13.948;2022-08-01T08:06:59;9.13;;;3.33;;
3993;SDS011;2011;48.238;13.948;2022-08-01T08:09:26;5.83;;;3.23;;
3993;SDS011;2011;48.238;13.948;2022-08-01T08:11:53;13.03;;;3.80;;
3993;SDS011;2011;48.238;13.948;2022-08-01T08:14:21;6.00;;;2.90;;
3993;SDS011;2011;48.238;13.948;2022-08-01T08:16:49;14.40;;;3.50;;
3993;SDS011;2011;48.238;13.948;2022-08-01T08:19:16;8.20;;;3.50;;
3993;SDS011;2011;48.238;13.948;2022-08-01T08:21:43;7.50;;;3.60;;
3993;SDS011;2011;48.238;13.948;2022-08-01T08:24:10;7.10;;;3.80;;
3993;SDS011;2011;48.238;13.948;2022-08-01T08:26:46;9.80;;;3.27;;
3993;SDS011;2011;48.238;13.948;2022-08-01T08:29:14;8.80;;;3.80;;
3993;SDS011;2011;48.238;13.948;2022-08-01T08:31:43;7.97;;;3.70;;
3993;SDS011;2011;48.238;13.948;2022-08-01T08:34:11;6.37;;;3.37;;
3993;SDS011;2011;48.238;13.948;2022-08-01T08:36:38;10.37;;;4.23;;
3993;SDS011;2011;48.238;13.948;2022-08-01T08:39:05;6.97;;;3.70;;
3993;SDS011;2011;48.238;13.948;2022-08-01T08:41:33;6.40;;;3.47;;
3993;SDS011;2011;48.238;13.948;2022-08-01T08:44:00;5.87;;;3.83;;
3993;SDS011;2011;48.238;13.948;2022-08-01T08:46:27;9.70;;;3.80;;
3993;SDS011;2011;48.238;13.948;2022-08-01T08:48:59;8.20;;;3.50;;
3993;SDS011;2011;48.238;13.948;2022-08-01T08:51:30;11.00;;;3.50;;
3993;SDS011;2011;48.238;13.948;2022-08-01T08:53:59;14.40;;;3.83;;
3993;SDS011;2011;48.238;13.948;2022-08-01T08:56:29;8.00;;;3.80;;
3993;SDS011;2011;48.238;13.948;2022-08-01T08:58:59;11.97;;;4.20;;
3993;SDS011;2011;48.238;13.948;2022-08-01T09:01:27;6.30;;;3.67;;
3993;SDS011;2011;48.238;13.948;2022-08-01T09:03:54;12.83;;;3.30;;
3993;SDS011;2011;48.238;13.948;2022-08-01T09:06:23;6.70;;;3.60;;
3993;SDS011;2011;48.238;13.948;2022-08-01T09:08:50;6.83;;;3.73;;
3993;SDS011;2011;48.238;13.948;2022-08-01T09:11:18;9.13;;;3.67;;
3993;SDS011;2011;48.238;13.948;2022-08-01T09:13:48;10.57;;;3.50;;
3993;SDS011;2011;48.238;13.948;2022-08-01T09:16:28;12.57;;;4.23;;
3993;SDS011;2011;48.238;13.948;2022-08-01T09:19:06;8.60;;;3.83;;
3993;SDS011;2011;48.238;13.948;2022-08-01T09:21:36;12.53;;;3.90;;
3993;SDS011;2011;48.238;13.948;2022-08-01T09:24:03;9.53;;;3.93;;
3993;SDS011;2011;48.238;13.948;2022-08-01T09:26:39;6.90;;;3.30;;
3993;SDS011;2011;48.238;13.948;2022-08-01T09:29:06;7.80;;;3.90;;
3993;SDS011;2011;48.238;13.948;2022-08-01T09:31:39;6.43;;;3.27;;
3993;SDS011;2011;48.238;13.948;2022-08-01T09:34:07;7.73;;;4.00;;
3993;SDS011;2011;48.238;13.948;2022-08-01T09:36:46;6.73;;;3.60;;
3993;SDS011;2011;48.238;13.948;2022-08-01T09:39:16;6.47;;;4.00;;
3993;SDS011;2011;48.238;13.948;2022-08-01T09:41:44;5.70;;;3.40;;
3993;SDS011;2011;48.238;13.948;2022-08-01T09:44:11;6.97;;;3.97;;
3993;SDS011;2011;48.238;13.948;2022-08-01T09:46:48;5.37;;;3.00;;
3993;SDS011;2011;48.238;13.948;2022-08-01T09:49:16;10.53;;;3.67;;
3993;SDS011;2011;48.238;13.948;2022-08-01T09:51:55;6.40;;;3.30;;
3993;SDS011;2011;48.238;13.948;2022-08-01T09:54:31;13.90;;;3.53;;
3993;SDS011;2011;48.238;13.948;2022-08-01T09:57:08;7.37;;;3.37;;
3993;SDS011;2011;48.238;13.948;2022-08-01T09:59:37;10.40;;;3.30;;
3993;SDS011;2011;48.238;13.948;2022-08-01T10:02:07;8.40;;;3.83;;
3993;SDS011;2011;48.238;13.948;2022-08-01T10:04:35;7.07;;;3.70;;
3993;SDS011;2011;48.238;13.948;2022-08-01T10:07:05;8.80;;;2.90;;
3993;SDS011;2011;48.238;13.948;2022-08-01T10:09:33;10.43;;;3.53;;
3993;SDS011;2011;48.238;13.948;2022-08-01T10:12:02;10.77;;;3.40;;
3993;SDS011;2011;48.238;13.948;2022-08-01T10:14:30;10.37;;;3.37;;
3993;SDS011;2011;48.238;13.948;2022-08-01T10:16:58;7.17;;;3.07;;
3993;SDS011;2011;48.238;13.948;2022-08-01T10:19:29;7.37;;;3.50;;
3993;SDS011;2011;48.238;13.948;2022-08-01T10:21:57;5.77;;;3.13;;
3993;SDS011;2011;48.238;13.948;2022-08-01T10:24:27;5.50;;;3.30;;
3993;SDS011;2011;48.238;13.948;2022-08-01T10:26:56;6.80;;;3.20;;
3993;SDS011;2011;48.238;13.948;2022-08-01T10:29:28;9.00;;;3.97;;
3993;SDS011;2011;48.238;13.948;2022-08-01T10:32:00;7.33;;;2.97;;
3993;SDS011;2011;48.238;13.948;2022-08-01T10:34:28;9.27;;;3.33;;
3993;SDS011;2011;48.238;13.948;2022-08-01T10:36:57;9.93;;;3.43;;
3993;SDS011;2011;48.238;13.948;2022-08-01T10:39:24;5.70;;;3.00;;
3993;SDS011;2011;48.238;13.948;2022-08-01T10:41:54;6.47;;;3.27;;
3993;SDS011;2011;48.238;13.948;2022-08-01T10:44:22;8.17;;;2.90;;
3993;SDS011;2011;48.238;13.948;2022-08-01T10:46:52;6.07;;;3.03;;
3993;SDS011;2011;48.238;13.948;2022-08-01T10:49:23;8.23;;;2.90;;
3993;SDS011;2011;48.238;13.948;2022-08-01T10:51:55;8.73;;;3.50;;
3993;SDS011;2011;48.238;13.948;2022-08-01T10:54:24;6.53;;;2.60;;
3993;SDS011;2011;48.238;13.948;2022-08-01T10:56:51;8.63;;;3.17;;
3993;SDS011;2011;48.238;13.948;2022-08-01T10:59:22;5.87;;;2.83;;
3993;SDS011;2011;48.238;13.948;2022-08-01T11:01:57;7.90;;;3.03;;
3993;SDS011;2011;48.238;13.948;2022-08-01T11:04:32;10.43;;;3.60;;
3993;SDS011;2011;48.238;13.948;2022-08-01T11:07:04;10.63;;;3.00;;
3993;SDS011;2011;48.238;13.948;2022-08-01T11:09:38;5.50;;;2.70;;
3993;SDS011;2011;48.238;13.948;2022-08-01T11:12:09;5.07;;;2.90;;
3993;SDS011;2011;48.238;13.948;2022-08-01T11:17:42;6.43;;;3.53;;
3993;SDS011;2011;48.238;13.948;2022-08-01T11:20:13;8.63;;;3.20;;
3993;SDS011;2011;48.238;13.948;2022-08-01T11:31:40;6.93;;;2.90;;
3993;SDS011;2011;48.238;13.948;2022-08-01T11:34:09;8.10;;;3.00;;
3993;SDS011;2011;48.238;13.948;2022-08-01T11:36:36;4.50;;;2.83;;
3993;SDS011;2011;48.238;13.948;2022-08-01T11:39:18;5.63;;;2.93;;
3993;SDS011;2011;48.238;13.948;2022-08-01T11:41:46;12.80;;;3.07;;
3993;SDS011;2011;48.238;13.948;2022-08-01T11:44:15;4.20;;;2.63;;
3993;SDS011;2011;48.238;13.948;2022-08-01T11:49:45;5.30;;;2.67;;
3993;SDS011;2011;48.238;13.948;2022-08-01T11:52:17;6.97;;;2.77;;
3993;SDS011;2011;48.238;13.948;2022-08-01T11:54:46;9.43;;;3.47;;
3993;SDS011;2011;48.238;13.948;2022-08-01T11:57:15;4.57;;;2.77;;
3993;SDS011;2011;48.238;13.948;2022-08-01T11:59:45;8.80;;;2.80;;
3993;SDS011;2011;48.238;13.948;2022-08-01T12:02:21;5.30;;;2.60;;
3993;SDS011;2011;48.238;13.948;2022-08-01T12:04:52;6.97;;;2.37;;
3993;SDS011;2011;48.238;13.948;2022-08-01T12:07:21;7.30;;;2.27;;
3993;SDS011;2011;48.238;13.948;2022-08-01T12:09:55;5.00;;;2.77;;
3993;SDS011;2011;48.238;13.948;2022-08-01T12:12:24;7.43;;;2.57;;
3993;SDS011;2011;48.238;13.948;2022-08-01T12:14:55;4.63;;;2.53;;
3993;SDS011;2011;48.238;13.948;2022-08-01T12:17:27;8.77;;;2.70;;
3993;SDS011;2011;48.238;13.948;2022-08-01T12:20:00;3.93;;;2.30;;
3993;SDS011;2011;48.238;13.948;2022-08-01T12:22:28;5.70;;;2.97;;
3993;SDS011;2011;48.238;13.948;2022-08-01T12:24:55;9.13;;;2.73;;
3993;SDS011;2011;48.238;13.948;2022-08-01T12:27:30;7.33;;;2.60;;
3993;SDS011;2011;48.238;13.948;2022-08-01T12:29:58;6.20;;;2.90;;
3993;SDS011;2011;48.238;13.948;2022-08-01T12:32:26;4.60;;;2.80;;
3993;SDS011;2011;48.238;13.948;2022-08-01T12:34:56;5.87;;;2.77;;
3993;SDS011;2011;48.238;13.948;2022-08-01T12:37:28;8.23;;;2.60;;
3993;SDS011;2011;48.238;13.948;2022-08-01T12:39:55;5.57;;;2.63;;
3993;SDS011;2011;48.238;13.948;2022-08-01T12:42:23;10.10;;;3.53;;
3993;SDS011;2011;48.238;13.948;2022-08-01T12:44:51;4.40;;;2.50;;
3993;SDS011;2011;48.238;13.948;2022-08-01T12:47:19;7.93;;;2.60;;
3993;SDS011;2011;48.238;13.948;2022-08-01T12:49:47;5.90;;;2.60;;
3993;SDS011;2011;48.238;13.948;2022-08-01T12:52:15;9.67;;;2.57;;
3993;SDS011;2011;48.238;13.948;2022-08-01T12:55:00;3.97;;;2.10;;
3993;SDS011;2011;48.238;13.948;2022-08-01T12:57:33;3.80;;;2.10;;
3993;SDS011;2011;48.238;13.948;2022-08-01T13:00:08;8.37;;;2.80;;
3993;SDS011;2011;48.238;13.948;2022-08-01T13:02:37;4.40;;;2.20;;
3993;SDS011;2011;48.238;13.948;2022-08-01T13:05:05;3.93;;;1.67;;
3993;SDS011;2011;48.238;13.948;2022-08-01T13:07:35;4.03;;;1.80;;
3993;SDS011;2011;48.238;13.948;2022-08-01T13:10:09;7.53;;;1.37;;
3993;SDS011;2011;48.238;13.948;2022-08-01T13:12:36;3.93;;;1.77;;
3993;SDS011;2011;48.238;13.948;2022-08-01T13:15:17;6.80;;;1.97;;
3993;SDS011;2011;48.238;13.948;2022-08-01T13:17:45;3.73;;;1.63;;
3993;SDS011;2011;48.238;13.948;2022-08-01T13:20:21;4.07;;;2.00;;
3993;SDS011;2011;48.238;13.948;2022-08-01T13:22:49;6.00;;;2.20;;
3993;SDS011;2011;48.238;13.948;2022-08-01T13:25:18;4.27;;;2.30;;
3993;SDS011;2011;48.238;13.948;2022-08-01T13:27:45;5.53;;;1.87;;
3993;SDS011;2011;48.238;13.948;2022-08-01T13:30:13;6.80;;;2.00;;
3993;SDS011;2011;48.238;13.948;2022-08-01T13:32:42;7.70;;;2.10;;
3993;SDS011;2011;48.238;13.948;2022-08-01T13:35:10;9.13;;;1.90;;
3993;SDS011;2011;48.238;13.948;2022-08-01T13:37:39;7.53;;;1.90;;
3993;SDS011;2011;48.238;13.948;2022-08-01T13:40:07;11.50;;;2.30;;
3993;SDS011;2011;48.238;13.948;2022-08-01T13:42:37;7.43;;;2.33;;
3993;SDS011;2011;48.238;13.948;2022-08-01T13:45:05;4.37;;;2.10;;
3993;SDS011;2011;48.238;13.948;2022-08-01T13:47:36;5.00;;;2.03;;
3993;SDS011;2011;48.238;13.948;2022-08-01T13:50:04;5.27;;;1.93;;
3993;SDS011;2011;48.238;13.948;2022-08-01T13:52:31;4.50;;;2.07;;
3993;SDS011;2011;48.238;13.948;2022-08-01T13:54:58;7.43;;;2.37;;
3993;SDS011;2011;48.238;13.948;2022-08-01T13:57:26;3.60;;;1.80;;
3993;SDS011;2011;48.238;13.948;2022-08-01T13:59:55;6.37;;;1.93;;
3993;SDS011;2011;48.238;13.948;2022-08-01T14:02:24;5.47;;;1.97;;
3993;SDS011;2011;48.238;13.948;2022-08-01T14:04:52;12.50;;;2.10;;
3993;SDS011;2011;48.238;13.948;2022-08-01T14:07:19;4.33;;;2.10;;
3993;SDS011;2011;48.238;13.948;2022-08-01T14:09:46;4.03;;;1.87;;
3993;SDS011;2011;48.238;13.948;2022-08-01T14:12:13;4.80;;;2.00;;
3993;SDS011;2011;48.238;13.948;2022-08-01T14:14:40;3.60;;;1.80;;
3993;SDS011;2011;48.238;13.948;2022-08-01T14:17:09;3.90;;;1.90;;
3993;SDS011;2011;48.238;13.948;2022-08-01T14:19:36;5.00;;;1.70;;
3993;SDS011;2011;48.238;13.948;2022-08-01T14:22:04;4.60;;;1.60;;
3993;SDS011;2011;48.238;13.948;2022-08-01T14:24:31;4.90;;;1.80;;
3993;SDS011;2011;48.238;13.948;2022-08-01T14:26:58;5.30;;;1.70;;
3993;SDS011;2011;48.238;13.948;2022-08-01T14:29:25;11.10;;;2.20;;
3993;SDS011;2011;48.238;13.948;2022-08-01T14:31:52;4.90;;;1.70;;
3993;SDS011;2011;48.238;13.948;2022-08-01T14:34:21;5.40;;;1.97;;
3993;SDS011;2011;48.238;13.948;2022-08-01T14:36:48;4.33;;;2.13;;
3993;SDS011;2011;48.238;13.948;2022-08-01T14:39:15;6.77;;;1.97;;
3993;SDS011;2011;48.238;13.948;2022-08-01T14:41:42;5.93;;;1.90;;
3993;SDS011;2011;48.238;13.948;2022-08-01T14:44:09;4.77;;;2.03;;
3993;SDS011;2011;48.238;13.948;2022-08-01T14:46:36;6.93;;;2.43;;
3993;SDS011;2011;48.238;13.948;2022-08-01T14:49:03;4.30;;;2.07;;
3993;SDS011;2011;48.238;13.948;2022-08-01T14:51:32;3.93;;;2.00;;
3993;SDS011;2011;48.238;13.948;2022-08-01T14:53:59;4.50;;;2.07;;
3993;SDS011;2011;48.238;13.948;2022-08-01T14:56:27;4.87;;;2.10;;
3993;SDS011;2011;48.238;13.948;2022-08-01T14:58:54;6.50;;;2.07;;
3993;SDS011;2011;48.238;13.948;2022-08-01T15:01:21;5.13;;;2.10;;
3993;SDS011;2011;48.238;13.948;2022-08-01T15:03:48;7.07;;;2.40;;
3993;SDS011;2011;48.238;13.948;2022-08-01T15:06:16;5.20;;;2.20;;
3993;SDS011;2011;48.238;13.948;2022-08-01T15:08:44;7.80;;;2.73;;
3993;SDS011;2011;48.238;13.948;2022-08-01T15:11:11;4.50;;;2.20;;
3993;SDS011;2011;48.238;13.948;2022-08-01T15:13:38;4.10;;;2.10;;
3993;SDS011;2011;48.238;13.948;2022-08-01T15:16:05;4.40;;;2.00;;
3993;SDS011;2011;48.238;13.948;2022-08-01T15:18:32;5.50;;;1.80;;
3993;SDS011;2011;48.238;13.948;2022-08-01T15:21:00;8.50;;;2.40;;